Latest Weather Observations for Coondewanna

IDW60801

Issued at 9:03 pm WST Monday 18 June 2018 (issued every 10 minutes, with the page automatically refreshed every 10 minutes)

About weather observations | Map of weather stations | Latest weather observations for WA | Other Formats
Station Details ID: 505051 Name: COONDEWANNA Lat: -22.96 Lon: 118.81 Height: 697.63 m
Data from the previous 72 hours. | See also: Recent months for locations in Western Australia
Date/Time
WST
Temp
°C
App
Temp
°C
Dew
Point
°C
Rel
Hum
%
Delta-T
°C
Wind Press
QNH
hPa
Press
MSL
hPa
Rain since
9am
mm
Dir  Spd
km/h
Gust
km/h
Spd
kts
Gust
kts
18/09:00pm 16.6 14.5 8.1 57 4.5 NE 9 11 5 6 1021.5 1019.8 0.0
18/08:30pm 17.5 16.0 7.0 50 5.4 NE 4 7 2 4 1021.3 1019.6 0.0
18/08:00pm 18.5 16.0 6.4 45 6.2 NE 9 9 5 5 1020.9 1019.3 0.0
18/07:30pm 18.5 16.5 7.0 47 6.0 NE 7 9 4 5 1020.6 1019.0 0.0
18/07:00pm 18.6 16.6 6.4 45 6.3 NE 6 7 3 4 1020.4 1018.8 0.0
18/06:30pm 19.1 16.2 4.8 39 7.2 NNE 9 9 5 5 1020.1 1018.4 0.0
18/06:00pm 19.3 16.8 5.0 39 7.2 NNE 7 9 4 5 1020.2 1018.5 0.0
18/05:30pm 21.0 17.9 3.7 32 8.6 NNE 9 11 5 6 1019.8 1018.1 0.0
18/05:00pm 22.2 19.3 2.8 28 9.5 NNE 7 11 4 6 1019.5 1017.9 0.0
18/04:30pm 23.3 20.3 2.2 25 10.4 NNE 7 11 4 6 1019.4 1017.8 0.0
18/04:00pm 23.2 19.5 2.1 25 10.3 N 11 13 6 7 1019.2 1017.6 0.0
18/03:30pm 23.6 19.8 1.9 24 10.6 N 11 17 6 9 1019.0 1017.3 0.0
18/03:00pm 23.3 19.5 1.6 24 10.5 NNE 11 20 6 11 1018.9 1017.2 0.0
18/02:30pm 23.4 19.9 1.1 23 10.7 NNE 9 22 5 12 1019.0 1017.3 0.0
18/02:00pm 23.1 19.3 1.5 24 10.4 N 11 22 6 12 1019.1 1017.5 0.0
18/01:30pm 22.5 18.6 0.9 24 10.3 NE 11 20 6 11 1018.9 1017.2 0.0
18/01:00pm 22.5 18.1 0.4 23 10.4 N 13 20 7 11 1019.5 1017.9 0.0
18/12:30pm 22.4 17.6 0.3 23 10.4 N 15 20 8 11 1020.0 1018.3 0.0
18/12:00pm 21.3 16.2 0.5 25 9.7 NNE 17 20 9 11 1020.6 1019.0 0.0
18/11:30am 21.1 15.9 -0.2 24 9.8 NNE 17 24 9 13 1021.3 1019.6 0.0
18/11:00am 20.9 16.2 0.7 26 9.4 NNE 15 19 8 10 1021.9 1020.3 0.0
18/10:30am 19.0 14.0 -0.9 26 8.9 N 15 20 8 11 1022.6 1021.0 0.0
18/10:00am 19.3 14.8 -0.1 27 8.8 NNE 13 19 7 10 1022.5 1020.9 0.0
18/09:30am 19.6 13.9 -0.4 26 9.1 NE 19 24 10 13 1022.7 1021.1 0.0
18/09:00am 18.8 13.9 -0.6 27 8.7 NE 15 20 8 11 1022.7 1021.1 0.0
18/08:30am 17.6 14.3 -0.2 30 8.0 NE 7 11 4 6 1022.7 1021.1 0.0
18/08:00am 14.2 11.4 3.1 47 5.2 E 7 11 4 6 1022.6 1021.0 0.0
18/07:30am 9.4 7.8 4.4 71 2.3 E 2 7 1 4 1022.4 1020.8 0.0
18/07:00am 8.9 6.2 3.9 71 2.3 E 7 9 4 5 1022.0 1020.4 0.0
18/06:30am 7.0 5.7 4.3 83 1.2 CALM 0 0 0 0 1022.0 1020.4 0.0
18/06:00am 8.0 5.5 4.0 76 1.8 E 6 9 3 5 1021.7 1020.1 0.0
18/05:30am 8.8 5.9 4.4 74 2.0 E 9 11 5 6 1021.4 1019.7 0.0
18/05:00am 7.8 5.6 5.3 84 1.2 E 6 9 3 5 1021.6 1020.0 0.0
18/04:30am 7.8 6.7 4.9 82 1.3 CALM 0 2 0 1 1021.9 1020.3 0.0
18/04:00am 8.3 6.0 4.7 78 1.7 E 6 9 3 5 1021.8 1020.2 0.0
18/03:30am 11.0 7.6 4.0 62 3.2 E 11 13 6 7 1021.7 1020.1 0.0
18/03:15am 9.4 6.9 4.6 72 2.2 E 7 9 4 5 1021.7 1020.1 0.0
18/03:01am 8.9 6.4 4.9 76 1.9 E 7 9 4 5 1021.7 1020.1 0.0
18/03:00am 8.9 6.4 4.7 75 1.9 E 7 9 4 5 1021.7 1020.1 0.0
18/02:30am 11.0 9.8 4.5 64 3.0 CALM 0 0 0 0 1021.5 1019.8 0.0
18/02:00am 11.5 8.3 5.2 65 3.0 E 11 13 6 7 1021.1 1019.5 0.0
18/01:30am 9.0 6.9 5.7 80 1.6 E 6 7 3 4 1021.9 1020.3 0.0
18/01:00am 10.6 9.8 6.7 77 1.9 CALM 0 0 0 0 1022.0 1020.4 0.0
18/12:30am 10.3 8.1 5.5 72 2.3 E 6 9 3 5 1022.2 1020.6 0.0
18/12:00am 10.7 8.9 5.5 70 2.5 E 4 9 2 5 1022.0 1020.4 0.0
 
Date/Time
WST
Temp
°C
App
Temp
°C
Dew
Point
°C
Rel
Hum
%
Delta-T
°C
Wind Press
QNH
hPa
Press
MSL
hPa
Rain since
9am
mm
Dir  Spd
km/h
Gust
km/h
Spd
kts
Gust
kts
17/11:30pm 11.1 8.9 6.0 71 2.5 E 7 9 4 5 1021.9 1020.3 0.0
17/11:00pm 12.8 9.6 5.2 60 3.7 E 11 11 6 6 1022.1 1020.5 0.0
17/10:30pm 10.6 9.1 6.6 76 2.0 E 4 6 2 3 1022.5 1020.9 0.0
17/10:00pm 11.4 10.6 6.3 71 2.5 CALM 0 0 0 0 1022.5 1020.9 0.0
17/09:30pm 11.5 10.5 5.8 68 2.8 CALM 0 0 0 0 1022.5 1020.9 0.0
17/09:00pm 12.8 10.9 6.6 66 3.1 E 6 7 3 4 1022.4 1020.8 0.0
17/08:30pm 14.2 12.4 5.3 55 4.4 E 4 7 2 4 1022.4 1020.8 0.0
17/08:00pm 14.9 12.6 4.6 50 5.0 E 6 7 3 4 1022.5 1020.9 0.0
17/07:30pm 15.3 13.8 5.0 50 5.0 E 2 7 1 4 1022.2 1020.6 0.0
17/07:00pm 15.9 13.2 3.7 44 5.8 E 7 9 4 5 1021.9 1020.3 0.0
17/06:30pm 18.0 14.4 3.1 37 7.2 E 11 13 6 7 1021.8 1020.2 0.0
17/06:00pm 19.4 15.8 2.7 33 8.0 E 11 13 6 7 1021.8 1020.2 0.0
17/05:30pm 21.1 17.0 2.4 29 9.1 E 13 15 7 8 1021.6 1020.0 0.0
17/05:00pm 22.7 18.5 1.7 25 10.1 ENE 13 20 7 11 1021.6 1020.0 0.0
17/04:30pm 23.5 19.4 2.4 25 10.4 NE 13 19 7 10 1021.5 1019.8 0.0
17/04:00pm 23.9 19.4 2.1 24 10.7 NNE 15 20 8 11 1021.5 1019.8 0.0
17/03:30pm 24.3 19.3 1.2 22 11.2 ENE 17 24 9 13 1021.4 1019.7 0.0
17/03:00pm 24.0 19.3 1.0 22 11.1 NE 15 24 8 13 1021.3 1019.6 0.0
17/02:30pm 24.2 19.2 1.2 22 11.1 E 17 32 9 17 1021.5 1019.8 0.0
17/02:00pm 23.4 18.3 0.5 22 10.9 ENE 17 24 9 13 1021.6 1020.0 0.0
17/01:30pm 23.4 17.9 0.5 22 10.9 E 19 26 10 14 1021.7 1020.1 0.0
17/01:00pm 22.9 17.0 -0.6 21 10.9 ENE 20 26 11 14 1022.1 1020.5 0.0
17/12:30pm 22.8 16.9 -0.6 21 10.9 E 20 26 11 14 1022.4 1020.8 0.0
17/12:00pm 22.3 16.9 -1.1 21 10.7 ENE 17 24 9 13 1023.2 1021.6 0.0
17/11:30am 21.5 15.7 -1.7 21 10.4 E 19 28 10 15 1023.6 1022.0 0.0
17/11:00am 20.9 15.1 -1.6 22 10.0 ENE 19 26 10 14 1023.9 1022.3 0.0
17/10:30am 19.9 13.4 -2.4 22 9.7 ENE 22 28 12 15 1024.2 1022.7 0.0
17/10:00am 19.5 13.0 -2.2 23 9.4 E 22 30 12 16 1024.5 1022.9 0.0
17/09:30am 18.9 13.5 -1.0 26 8.9 ENE 17 20 9 11 1024.7 1023.1 0.0
17/09:00am 17.8 12.0 -1.4 27 8.4 ENE 19 24 10 13 1024.7 1023.1 0.0
17/08:30am 16.8 12.3 -0.4 31 7.6 ENE 13 20 7 11 1024.7 1023.1 0.0
17/08:00am 12.1 11.0 5.3 63 3.3 CALM 0 0 0 0 1024.7 1023.1 0.0
17/07:30am 9.5 7.0 4.5 71 2.3 E 7 9 4 5 1024.6 1023.0 0.0
17/07:00am 7.5 5.2 4.6 82 1.3 E 6 7 3 4 1024.2 1022.7 0.0
17/06:30am 7.2 5.9 4.3 82 1.3 CALM 0 0 0 0 1024.0 1022.4 0.0
17/06:00am 7.1 5.7 3.5 78 1.6 CALM 0 0 0 0 1023.7 1022.1 0.0
17/05:30am 7.6 5.1 4.0 78 1.6 E 6 7 3 4 1023.6 1022.0 0.0
17/05:00am 8.1 5.7 4.5 78 1.6 E 6 7 3 4 1023.5 1021.9 0.0
17/04:30am 7.1 5.8 4.2 82 1.3 CALM 0 0 0 0 1023.4 1021.8 0.0
17/04:00am 7.9 6.0 5.0 82 1.3 E 4 7 2 4 1023.2 1021.6 0.0
17/03:30am 9.2 7.9 4.0 70 2.4 CALM 0 0 0 0 1023.4 1021.8 0.0
17/03:00am 9.2 7.5 4.2 71 2.3 E 2 7 1 4 1023.4 1021.8 0.0
17/02:30am 8.8 6.8 4.4 74 2.0 ESE 4 7 2 4 1023.6 1022.0 0.0
17/02:00am 8.3 7.1 4.7 78 1.7 CALM 0 6 0 3 1023.7 1022.1 0.0
17/01:30am 9.3 8.2 4.9 74 2.1 CALM 0 0 0 0 1023.6 1022.0 0.0
17/01:00am 9.5 8.6 5.9 78 1.7 CALM 0 0 0 0 1023.7 1022.1 0.0
17/12:30am 8.7 7.8 6.0 83 1.3 CALM 0 0 0 0 1023.9 1022.3 0.0
17/12:00am 9.1 8.1 5.5 78 1.7 CALM 0 0 0 0 1024.0 1022.4 0.0
 
Date/Time
WST
Temp
°C
App
Temp
°C
Dew
Point
°C
Rel
Hum
%
Delta-T
°C
Wind Press
QNH
hPa
Press
MSL
hPa
Rain since
9am
mm
Dir  Spd
km/h
Gust
km/h
Spd
kts
Gust
kts
16/11:30pm 9.6 8.6 5.8 77 1.8 CALM 0 0 0 0 1024.1 1022.6 0.0
16/11:00pm 10.8 9.4 5.6 70 2.5 ESE 2 6 1 3 1024.4 1022.8 0.0
16/10:30pm 10.4 8.8 6.5 77 1.9 ESE 4 7 2 4 1024.5 1022.9 0.0
16/10:00pm 10.5 9.3 6.5 76 1.9 E 2 9 1 5 1024.4 1022.8 0.0
16/09:30pm 13.7 10.9 5.1 56 4.2 E 9 15 5 8 1024.1 1022.6 0.0
16/09:00pm 11.2 9.7 6.7 74 2.2 ENE 4 9 2 5 1024.2 1022.7 0.0
16/08:30pm 11.9 11.0 6.2 68 2.8 CALM 0 0 0 0 1024.1 1022.6 0.0
16/08:00pm 12.8 11.9 6.2 64 3.2 CALM 0 0 0 0 1024.2 1022.7 0.0
16/07:30pm 14.8 12.0 5.1 52 4.7 ENE 9 11 5 6 1023.9 1022.3 0.0
16/07:00pm 15.8 12.7 5.4 50 5.1 ENE 11 13 6 7 1023.7 1022.1 0.0
16/06:30pm 16.3 13.4 4.7 46 5.7 E 9 11 5 6 1023.4 1021.8 0.0
16/06:00pm 17.8 15.2 4.4 41 6.6 E 7 7 4 4 1023.1 1021.5 0.0
16/05:30pm 20.0 16.4 2.8 32 8.3 E 11 13 6 7 1022.9 1021.3 0.0
16/05:00pm 21.7 17.6 2.4 28 9.4 ENE 13 17 7 9 1022.6 1021.0 0.0
16/04:30pm 22.1 17.6 2.2 27 9.7 E 15 20 8 11 1022.4 1020.8 0.0
16/04:00pm 22.5 18.0 2.1 26 9.9 ENE 15 24 8 13 1022.2 1020.6 0.0
16/03:30pm 22.4 17.0 1.4 25 10.1 E 19 24 10 13 1022.1 1020.5 0.0
16/03:00pm 22.3 17.4 1.9 26 9.8 ENE 17 24 9 13 1022.1 1020.5 0.0
16/02:30pm 21.8 16.2 1.5 26 9.7 ENE 20 28 11 15 1022.1 1020.5 0.0
16/02:00pm 21.9 16.4 1.6 26 9.7 ENE 20 28 11 15 1022.3 1020.7 0.0
16/01:30pm 21.6 15.3 1.3 26 9.7 E 24 32 13 17 1022.4 1020.8 0.0
16/01:00pm 21.0 14.6 0.8 26 9.5 E 24 32 13 17 1022.9 1021.3 0.0
16/12:30pm 20.4 14.4 0.8 27 9.2 ENE 22 32 12 17 1023.5 1021.9 0.0
16/12:00pm 20.0 14.2 -0.1 26 9.2 ENE 20 28 11 15 1024.0 1022.4 0.0
16/11:30am 19.7 13.6 0.2 27 9.0 ENE 22 33 12 18 1024.2 1022.7 0.0
16/11:00am 19.0 10.9 -0.4 27 8.7 ENE 32 43 17 23 1024.4 1022.8 0.0
16/10:30am 18.2 10.4 -1.1 27 8.5 ENE 30 43 16 23 1024.8 1023.2 0.0
16/10:00am 17.4 9.2 -0.8 29 8.0 ENE 32 44 17 24 1025.0 1023.4 0.0
16/09:50am 17.0 9.2 -1.1 29 7.9 ENE 30 48 16 26 1025.0 1023.4 0.0
16/09:30am 16.3 9.0 0.0 33 7.3 E 28 35 15 19 1025.0 1023.4 0.0
16/09:00am 14.8 7.0 -0.5 35 6.6 E 30 37 16 20 1025.0 1023.4 0.0
16/08:30am 13.7 7.4 -0.7 37 6.2 E 22 35 12 19 1025.1 1023.5 0.0
16/08:00am 12.6 6.8 -0.3 41 5.5 E 20 32 11 17 1025.1 1023.5 0.0
16/07:30am 11.1 5.5 -0.1 46 4.7 E 19 24 10 13 1024.7 1023.1 0.0
16/07:00am 10.1 4.5 0.2 50 4.2 ENE 19 22 10 12 1024.4 1022.8 0.0
16/06:30am 9.4 4.3 0.6 54 3.7 ENE 17 22 9 12 1024.1 1022.6 0.0
16/06:00am 4.6 1.8 1.8 82 1.2 E 6 7 3 4 1024.1 1022.6 0.0
16/05:30am 4.0 1.1 1.5 84 1.0 E 6 7 3 4 1023.9 1022.3 0.0
16/05:00am 4.4 2.6 1.4 81 1.2 CALM 0 0 0 0 1023.8 1022.2 0.0
16/04:30am 5.2 3.4 1.5 77 1.5 CALM 0 2 0 1 1023.8 1022.2 0.0
16/04:00am 6.1 2.9 0.6 68 2.2 E 7 11 4 6 1023.8 1022.2 0.0
16/03:30am 6.6 3.6 0.7 66 2.4 E 6 9 3 5 1023.7 1022.1 0.0
16/03:00am 10.9 6.5 0.3 48 4.5 E 13 19 7 10 1023.9 1022.3 0.0
16/02:30am 11.0 6.3 0.7 49 4.4 NE 15 19 8 10 1023.9 1022.3 0.0
16/02:00am 11.3 7.0 0.7 48 4.6 E 13 17 7 9 1024.0 1022.4 0.0
16/01:30am 10.6 7.4 0.9 51 4.2 NNE 7 13 4 7 1024.2 1022.7 0.0
16/01:00am 10.0 6.5 1.4 55 3.7 ENE 9 13 5 7 1024.0 1022.4 0.0
16/12:30am 7.5 4.1 1.8 67 2.4 NNE 9 13 5 7 1024.1 1022.6 0.0
16/12:00am 5.7 3.2 3.5 86 1.0 E 6 7 3 4 1024.4 1022.8 0.0
 
Date/Time
WST
Temp
°C
App
Temp
°C
Dew
Point
°C
Rel
Hum
%
Delta-T
°C
Wind Press
QNH
hPa
Press
MSL
hPa
Rain since
9am
mm
Dir  Spd
km/h
Gust
km/h
Spd
kts
Gust
kts
15/11:30pm 5.4 3.9 2.9 84 1.1 CALM 0 0 0 0 1024.6 1023.0 0.0
15/11:00pm 6.2 4.7 3.2 81 1.3 CALM 0 0 0 0 1024.7 1023.1 0.0
15/10:30pm 8.0 5.5 4.0 76 1.8 E 6 7 3 4 1024.6 1023.0 0.0
15/10:00pm 8.1 5.9 3.6 73 2.0 E 4 6 2 3 1024.6 1023.0 0.0
15/09:30pm 10.1 7.0 3.4 63 3.0 E 9 11 5 6 1024.7 1023.1 0.0

Other Formats:

Comma delimited format used in spreadsheet applications
http://www.bom.gov.au/fwo/IDW60801/IDW60801.99312.axf

JavaScript Object Notation format (JSON) in row-major order
http://www.bom.gov.au/fwo/IDW60801/IDW60801.99312.json